createdAt,value
2022-08-05T00:04:18.487Z,0
2022-08-05T00:09:22.810Z,0
2022-08-05T00:14:20.857Z,0
2022-08-05T00:19:13.800Z,0
2022-08-05T00:24:34.094Z,0
2022-08-05T00:29:12.817Z,0
2022-08-05T00:35:10.613Z,0
2022-08-05T00:39:17.744Z,0
2022-08-05T00:44:21.511Z,0
2022-08-05T00:49:20.811Z,0
2022-08-05T00:54:18.291Z,0
2022-08-05T00:59:09.070Z,0
2022-08-05T01:04:02.622Z,0
2022-08-05T01:09:04.588Z,0
2022-08-05T01:14:02.409Z,0
2022-08-05T01:19:02.452Z,0
2022-08-05T01:24:14.214Z,0
2022-08-05T01:28:56.624Z,0
2022-08-05T01:33:57.373Z,0
2022-08-05T01:38:54.493Z,0
2022-08-05T01:43:53.123Z,0
2022-08-05T01:48:52.892Z,0
2022-08-05T01:54:04.882Z,0
2022-08-05T01:58:53.261Z,0
2022-08-05T02:03:53.454Z,0
2022-08-05T02:09:01.877Z,0
2022-08-05T02:13:56.959Z,0
2022-08-05T02:18:48.636Z,0
2022-08-05T02:23:50.161Z,0
2022-08-05T02:28:50.608Z,0
2022-08-05T02:33:49.222Z,0
2022-08-05T02:38:55.219Z,0
2022-08-05T02:44:15.049Z,0
2022-08-05T02:48:52.617Z,0
2022-08-05T02:53:43.678Z,0
2022-08-05T02:58:53.864Z,0
2022-08-05T03:04:17.196Z,0
2022-08-05T03:08:43.695Z,0
2022-08-05T03:14:13.863Z,0
2022-08-05T03:18:50.098Z,0
2022-08-05T03:23:46.059Z,0
2022-08-05T03:28:36.661Z,0
2022-08-05T03:33:55.882Z,0
2022-08-05T03:38:43.732Z,0
2022-08-05T03:44:21.070Z,0
2022-08-05T03:48:37.405Z,0
2022-08-05T03:56:35.318Z,0
2022-08-05T03:58:31.798Z,0
2022-08-05T03:59:57.705Z,0
2022-08-05T04:04:58.225Z,0
2022-08-05T04:10:02.877Z,0
2022-08-05T04:14:50.538Z,0
2022-08-05T04:20:00.087Z,0
2022-08-05T04:24:54.769Z,0
2022-08-05T04:29:48.963Z,0
2022-08-05T04:34:46.737Z,0.01
2022-08-05T04:39:44.384Z,0.01
2022-08-05T04:44:45.440Z,0.01
2022-08-05T04:50:13.244Z,0.01
2022-08-05T04:54:42.726Z,0.01
2022-08-05T04:59:42.201Z,0.02
2022-08-05T05:04:16.725Z,0.02
2022-08-05T05:09:22.596Z,0.02
2022-08-05T05:14:33.153Z,0.03
2022-08-05T05:19:47.868Z,0.02
2022-08-05T05:24:19.712Z,0.02
2022-08-05T05:29:19.767Z,0.02
2022-08-05T05:34:26.824Z,0.02
2022-08-05T05:39:20.324Z,0.02
2022-08-05T05:44:47.165Z,0.02
2022-08-05T05:49:25.370Z,0.01
2022-08-05T05:54:21.565Z,0.02
2022-08-05T05:59:07.107Z,0.04
2022-08-05T06:04:05.971Z,0.06
2022-08-05T06:08:56.123Z,0.07
2022-08-05T06:13:58.025Z,0.08
2022-08-05T06:19:05.372Z,0.09
2022-08-05T06:23:54.223Z,0.1
2022-08-05T06:28:52.141Z,0.11
2022-08-05T06:34:20.637Z,0.11
2022-08-05T06:38:50.574Z,0.13
2022-08-05T06:44:03.265Z,0.14
2022-08-05T06:49:09.062Z,0.14
2022-08-05T06:53:56.052Z,0.15
2022-08-05T06:58:49.294Z,0.17
2022-08-05T07:03:48.619Z,0.17
2022-08-05T07:09:04.702Z,0.17
2022-08-05T07:14:02.526Z,0.17
2022-08-05T07:18:50.568Z,0.19
2022-08-05T07:23:54.788Z,0.28
2022-08-05T07:28:48.812Z,0.29
2022-08-05T07:33:45.723Z,0.29
2022-08-05T07:38:55.512Z,0.29
2022-08-05T07:43:46.917Z,0.32
2022-08-05T07:49:10.080Z,0.35
2022-08-05T07:53:55.127Z,0.36
2022-08-05T07:59:01.591Z,0.38
2022-08-05T08:03:52.732Z,0.2
2022-08-05T08:08:42.659Z,0.19
2022-08-05T08:14:06.673Z,0.46
2022-08-05T08:18:41.564Z,0.48
2022-08-05T08:24:14.983Z,0.45
2022-08-05T08:30:30.272Z,0.41
2022-08-05T08:33:41.617Z,0.51
2022-08-05T08:38:39.855Z,0.54
2022-08-05T08:45:31.852Z,0.54
2022-08-05T08:52:13.534Z,0.5
2022-08-05T08:53:37.192Z,0.48
2022-08-05T08:58:51.656Z,0.61
2022-08-05T09:00:00.746Z,0.6
2022-08-05T09:06:11.512Z,0.5
2022-08-05T09:09:55.038Z,0.59
2022-08-05T09:15:08.716Z,0.62
2022-08-05T09:20:09.433Z,0.64
2022-08-05T09:24:56.482Z,0.66
2022-08-05T09:29:55.319Z,0.68
2022-08-05T09:34:52.817Z,0.69
2022-08-05T09:39:59.050Z,0.71
2022-08-05T09:44:57.560Z,0.58
2022-08-05T09:50:08.778Z,0.72
2022-08-05T09:54:51.414Z,0.7
2022-08-05T09:59:21.324Z,0.73
2022-08-05T10:04:19.049Z,0.75
2022-08-05T10:09:46.210Z,0.75
2022-08-05T10:14:16.491Z,0.78
2022-08-05T10:19:15.926Z,0.8
2022-08-05T10:24:14.025Z,0.76
2022-08-05T10:33:03.003Z,0.74
2022-08-05T10:34:31.782Z,0.79
2022-08-05T10:40:28.535Z,0.81
2022-08-05T10:44:19.074Z,0.8
2022-08-05T10:49:33.680Z,0.81
2022-08-05T10:54:57.316Z,0.69
2022-08-05T10:58:56.646Z,0.73
2022-08-05T11:03:54.007Z,0.85
2022-08-05T11:08:53.654Z,0.82
2022-08-05T11:14:01.700Z,0.72
2022-08-05T11:18:58.610Z,0.83
2022-08-05T11:24:33.188Z,0.83
2022-08-05T11:28:51.975Z,0.82
2022-08-05T11:33:50.608Z,0.87
2022-08-05T11:38:58.726Z,0.83
2022-08-05T11:44:12.463Z,0.85
2022-08-05T11:48:53.120Z,0.78
2022-08-05T11:53:50.121Z,0.87
2022-08-05T11:58:55.526Z,0.8
2022-08-05T12:00:15.161Z,0.88
2022-08-05T12:05:20.743Z,0.69
2022-08-05T12:10:15.163Z,0.84
2022-08-05T12:15:40.142Z,0.83
2022-08-05T12:20:35.878Z,0.79
2022-08-05T12:25:03.315Z,0.82
2022-08-05T12:30:32.279Z,0.75
2022-08-05T12:35:08.528Z,0.62
2022-08-05T12:40:31.293Z,0.71
2022-08-05T12:45:01.269Z,0.63
2022-08-05T12:50:11.940Z,0.5
2022-08-05T12:55:00.543Z,0.58
2022-08-05T13:02:10.854Z,0.42
2022-08-05T13:04:27.806Z,0.3
2022-08-05T13:09:30.815Z,0.26
2022-08-05T13:14:37.198Z,0.3
2022-08-05T13:19:21.251Z,0.3
2022-08-05T13:25:08.039Z,0.37
2022-08-05T13:30:39.019Z,0.46
2022-08-05T13:34:28.509Z,0.4
2022-08-05T13:40:53.090Z,0.35
2022-08-05T13:44:13.524Z,0.36
2022-08-05T13:49:14.512Z,0.35
2022-08-05T13:54:25.887Z,0.28
2022-08-05T13:59:23.934Z,0.3
2022-08-05T14:03:58.414Z,0.29
2022-08-05T14:09:01.567Z,0.28
2022-08-05T14:14:00.209Z,0.27
2022-08-05T14:18:57.039Z,0.27
2022-08-05T14:23:54.857Z,0.31
2022-08-05T14:28:55.121Z,0.27
2022-08-05T14:34:04.060Z,0.29
2022-08-05T14:38:49.736Z,0.29
2022-08-05T14:44:22.730Z,0.29
2022-08-05T14:48:55.716Z,0.26
2022-08-05T14:54:53.479Z,0.25
2022-08-05T14:58:55.946Z,0.22
2022-08-05T15:00:30.218Z,0.21
2022-08-05T15:05:16.333Z,0.18
2022-08-05T15:10:17.329Z,0.17
2022-08-05T15:15:56.426Z,0.18
2022-08-05T15:20:28.382Z,0.16
2022-08-05T15:25:55.813Z,0.13
2022-08-05T15:30:18.649Z,0.11
2022-08-05T15:35:16.918Z,0.11
2022-08-05T15:41:59.031Z,0.11
2022-08-05T15:45:03.123Z,0.09
2022-08-05T15:50:04.174Z,0.09
2022-08-05T15:55:02.715Z,0.13
2022-08-05T15:59:24.834Z,0.1
2022-08-05T16:04:27.085Z,0.08
2022-08-05T16:09:25.615Z,0.06
2022-08-05T16:14:22.962Z,0.07
2022-08-05T16:20:14.314Z,0.06
2022-08-05T16:24:53.555Z,0.06
2022-08-05T16:29:23.026Z,0.07
2022-08-05T16:34:17.602Z,0.08
2022-08-05T16:39:16.301Z,0.07
2022-08-05T16:44:17.488Z,0.08
2022-08-05T16:49:21.452Z,0.08
2022-08-05T16:54:33.877Z,0.07
2022-08-05T16:59:16.097Z,0.06
2022-08-05T17:04:03.182Z,0.05
2022-08-05T17:09:02.566Z,0.05
2022-08-05T17:14:37.050Z,0.05
2022-08-05T17:18:59.786Z,0.05
2022-08-05T17:24:58.755Z,0.05
2022-08-05T17:28:58.858Z,0.05
2022-08-05T17:34:00.587Z,0.04
2022-08-05T17:39:01.633Z,0.04
2022-08-05T17:43:59.506Z,0.03
2022-08-05T17:48:54.755Z,0.03
2022-08-05T17:53:58.185Z,0.02
2022-08-05T17:58:54.247Z,0.02
2022-08-05T18:00:16.697Z,0.02
2022-08-05T18:05:21.646Z,0.02
2022-08-05T18:10:23.935Z,0.02
2022-08-05T18:15:15.312Z,0.01
2022-08-05T18:20:18.179Z,0.01
2022-08-05T18:25:25.521Z,0.01
2022-08-05T18:30:17.590Z,0
2022-08-05T18:35:18.296Z,0
2022-08-05T18:42:12.009Z,0
2022-08-05T18:45:20.260Z,0
2022-08-05T18:50:16.759Z,0
2022-08-05T18:55:15.288Z,0
2022-08-05T19:00:29.559Z,0
2022-08-05T19:06:19.408Z,0
2022-08-05T19:09:43.561Z,0
2022-08-05T19:15:04.361Z,0
2022-08-05T19:19:35.127Z,0
2022-08-05T19:24:56.249Z,0
2022-08-05T19:29:44.857Z,0
2022-08-05T19:34:33.251Z,0
2022-08-05T19:39:52.079Z,0
2022-08-05T19:44:33.688Z,0
2022-08-05T19:49:27.215Z,0
2022-08-05T19:54:35.565Z,0
2022-08-05T20:00:07.604Z,0
2022-08-05T20:04:16.331Z,0
2022-08-05T20:09:19.268Z,0
2022-08-05T20:14:28.884Z,0
2022-08-05T20:19:04.446Z,0
2022-08-05T20:24:03.909Z,0
2022-08-05T20:29:05.809Z,0
2022-08-05T20:34:02.271Z,0
2022-08-05T20:39:02.020Z,0
2022-08-05T20:44:38.446Z,0
2022-08-05T20:49:06.825Z,0
2022-08-05T20:54:05.549Z,0
2022-08-05T20:58:52.366Z,0
2022-08-05T21:03:52.062Z,0
2022-08-05T21:08:46.516Z,0
2022-08-05T21:13:59.470Z,0
2022-08-05T21:18:49.150Z,0
2022-08-05T21:23:45.652Z,0
2022-08-05T21:28:52.906Z,0
2022-08-05T21:33:50.149Z,0
2022-08-05T21:38:47.231Z,0
2022-08-05T21:44:05.088Z,0
2022-08-05T21:48:43.797Z,0
2022-08-05T21:53:40.073Z,0
2022-08-05T21:58:59.193Z,0
2022-08-05T22:00:13.492Z,0
2022-08-05T22:05:01.869Z,0
2022-08-05T22:10:02.165Z,0
2022-08-05T22:15:01.224Z,0
2022-08-05T22:20:18.848Z,0
2022-08-05T22:24:59.373Z,0
2022-08-05T22:29:58.502Z,0
2022-08-05T22:34:53.809Z,0
2022-08-05T22:39:59.327Z,0
2022-08-05T22:44:59.829Z,0
2022-08-05T22:50:31.004Z,0
2022-08-05T22:54:51.956Z,0
2022-08-05T22:59:55.843Z,0
2022-08-05T23:04:12.867Z,0
2022-08-05T23:10:04.107Z,0
2022-08-05T23:14:23.009Z,0
2022-08-05T23:19:41.975Z,0
2022-08-05T23:24:23.185Z,0
2022-08-05T23:29:21.906Z,0
2022-08-05T23:34:26.887Z,0
2022-08-05T23:39:56.226Z,0
2022-08-05T23:44:14.062Z,0
2022-08-05T23:49:36.847Z,0
2022-08-05T23:54:26.585Z,0
2022-08-05T23:59:01.600Z,0
